sensor_id;sensor_type;location;lat;lon;timestamp;P1;durP1;ratioP1;P2;durP2;ratioP2
6723;SDS011;3399;52.530;13.304;2023-01-29T00:01:04;11.27;;;8.17;;
6723;SDS011;3399;52.530;13.304;2023-01-29T00:03:31;14.97;;;9.13;;
6723;SDS011;3399;52.530;13.304;2023-01-29T00:05:57;9.03;;;7.03;;
6723;SDS011;3399;52.530;13.304;2023-01-29T00:08:23;10.97;;;7.10;;
6723;SDS011;3399;52.530;13.304;2023-01-29T00:10:49;8.20;;;6.13;;
6723;SDS011;3399;52.530;13.304;2023-01-29T00:13:14;8.20;;;7.27;;
6723;SDS011;3399;52.530;13.304;2023-01-29T00:15:40;8.07;;;7.00;;
6723;SDS011;3399;52.530;13.304;2023-01-29T00:18:06;11.13;;;8.00;;
6723;SDS011;3399;52.530;13.304;2023-01-29T00:20:31;8.80;;;7.13;;
6723;SDS011;3399;52.530;13.304;2023-01-29T00:22:57;9.10;;;8.07;;
6723;SDS011;3399;52.530;13.304;2023-01-29T00:25:23;8.53;;;7.10;;
6723;SDS011;3399;52.530;13.304;2023-01-29T00:27:49;8.57;;;7.67;;
6723;SDS011;3399;52.530;13.304;2023-01-29T00:30:15;11.20;;;8.30;;
6723;SDS011;3399;52.530;13.304;2023-01-29T00:32:43;9.47;;;7.70;;
6723;SDS011;3399;52.530;13.304;2023-01-29T00:35:09;10.67;;;8.47;;
6723;SDS011;3399;52.530;13.304;2023-01-29T00:37:35;12.07;;;7.10;;
6723;SDS011;3399;52.530;13.304;2023-01-29T00:40:00;9.27;;;8.10;;
6723;SDS011;3399;52.530;13.304;2023-01-29T00:42:26;11.23;;;9.47;;
6723;SDS011;3399;52.530;13.304;2023-01-29T00:45:10;12.73;;;9.10;;
6723;SDS011;3399;52.530;13.304;2023-01-29T00:47:36;10.10;;;8.67;;
6723;SDS011;3399;52.530;13.304;2023-01-29T00:50:03;11.27;;;9.27;;
6723;SDS011;3399;52.530;13.304;2023-01-29T00:52:31;10.87;;;9.73;;
6723;SDS011;3399;52.530;13.304;2023-01-29T00:54:58;11.77;;;10.03;;
6723;SDS011;3399;52.530;13.304;2023-01-29T00:57:25;11.20;;;9.40;;
6723;SDS011;3399;52.530;13.304;2023-01-29T00:59:52;13.00;;;9.40;;
6723;SDS011;3399;52.530;13.304;2023-01-29T01:02:18;12.00;;;9.53;;
6723;SDS011;3399;52.530;13.304;2023-01-29T01:05:03;11.03;;;9.33;;
6723;SDS011;3399;52.530;13.304;2023-01-29T01:07:31;14.33;;;11.00;;
6723;SDS011;3399;52.530;13.304;2023-01-29T01:09:57;14.17;;;10.70;;
6723;SDS011;3399;52.530;13.304;2023-01-29T01:12:41;14.77;;;10.87;;
6723;SDS011;3399;52.530;13.304;2023-01-29T01:15:07;14.83;;;10.00;;
6723;SDS011;3399;52.530;13.304;2023-01-29T01:17:33;13.80;;;11.03;;
6723;SDS011;3399;52.530;13.304;2023-01-29T01:19:58;11.67;;;10.27;;
6723;SDS011;3399;52.530;13.304;2023-01-29T01:22:24;14.47;;;10.67;;
6723;SDS011;3399;52.530;13.304;2023-01-29T01:24:49;14.33;;;10.27;;
6723;SDS011;3399;52.530;13.304;2023-01-29T01:27:15;14.03;;;10.20;;
6723;SDS011;3399;52.530;13.304;2023-01-29T01:29:43;13.20;;;10.77;;
6723;SDS011;3399;52.530;13.304;2023-01-29T01:32:09;13.33;;;9.83;;
6723;SDS011;3399;52.530;13.304;2023-01-29T01:34:35;11.57;;;10.37;;
6723;SDS011;3399;52.530;13.304;2023-01-29T01:37:00;24.07;;;16.63;;
6723;SDS011;3399;52.530;13.304;2023-01-29T01:39:26;14.37;;;10.90;;
6723;SDS011;3399;52.530;13.304;2023-01-29T01:41:51;13.87;;;10.83;;
6723;SDS011;3399;52.530;13.304;2023-01-29T01:47:53;13.77;;;10.40;;
6723;SDS011;3399;52.530;13.304;2023-01-29T01:52:42;17.00;;;11.30;;
6723;SDS011;3399;52.530;13.304;2023-01-29T01:55:11;17.73;;;12.23;;
6723;SDS011;3399;52.530;13.304;2023-01-29T01:57:40;17.30;;;11.63;;
6723;SDS011;3399;52.530;13.304;2023-01-29T02:00:11;15.17;;;11.03;;
6723;SDS011;3399;52.530;13.304;2023-01-29T02:02:40;12.87;;;11.13;;
6723;SDS011;3399;52.530;13.304;2023-01-29T02:05:26;15.77;;;11.13;;
6723;SDS011;3399;52.530;13.304;2023-01-29T02:08:13;14.23;;;11.40;;
6723;SDS011;3399;52.530;13.304;2023-01-29T02:11:00;14.17;;;10.57;;
6723;SDS011;3399;52.530;13.304;2023-01-29T02:13:26;13.73;;;11.60;;
6723;SDS011;3399;52.530;13.304;2023-01-29T02:15:51;13.87;;;11.20;;
6723;SDS011;3399;52.530;13.304;2023-01-29T02:18:18;14.87;;;11.50;;
6723;SDS011;3399;52.530;13.304;2023-01-29T02:21:04;16.40;;;11.17;;
6723;SDS011;3399;52.530;13.304;2023-01-29T02:26:34;14.40;;;11.73;;
6723;SDS011;3399;52.530;13.304;2023-01-29T02:29:17;15.63;;;10.97;;
6723;SDS011;3399;52.530;13.304;2023-01-29T02:34:59;17.47;;;12.37;;
6723;SDS011;3399;52.530;13.304;2023-01-29T02:37:49;12.93;;;9.97;;
6723;SDS011;3399;52.530;13.304;2023-01-29T02:40:40;16.83;;;11.83;;
6723;SDS011;3399;52.530;13.304;2023-01-29T02:43:22;13.63;;;10.27;;
6723;SDS011;3399;52.530;13.304;2023-01-29T02:46:10;19.00;;;12.50;;
6723;SDS011;3399;52.530;13.304;2023-01-29T02:49:00;15.40;;;10.67;;
6723;SDS011;3399;52.530;13.304;2023-01-29T02:51:37;18.23;;;11.63;;
6723;SDS011;3399;52.530;13.304;2023-01-29T02:54:16;13.03;;;10.17;;
6723;SDS011;3399;52.530;13.304;2023-01-29T02:57:14;25.27;;;17.77;;
6723;SDS011;3399;52.530;13.304;2023-01-29T02:59:46;15.30;;;10.97;;
6723;SDS011;3399;52.530;13.304;2023-01-29T03:02:40;16.97;;;13.10;;
6723;SDS011;3399;52.530;13.304;2023-01-29T03:05:16;21.93;;;14.03;;
6723;SDS011;3399;52.530;13.304;2023-01-29T03:07:47;14.57;;;12.23;;
6723;SDS011;3399;52.530;13.304;2023-01-29T03:10:24;14.00;;;10.77;;
6723;SDS011;3399;52.530;13.304;2023-01-29T03:13:05;19.17;;;12.47;;
6723;SDS011;3399;52.530;13.304;2023-01-29T03:15:47;17.80;;;12.73;;
6723;SDS011;3399;52.530;13.304;2023-01-29T03:18:20;13.00;;;10.50;;
6723;SDS011;3399;52.530;13.304;2023-01-29T03:20:52;12.00;;;9.83;;
6723;SDS011;3399;52.530;13.304;2023-01-29T03:23:30;20.60;;;15.60;;
6723;SDS011;3399;52.530;13.304;2023-01-29T03:26:19;17.50;;;10.27;;
6723;SDS011;3399;52.530;13.304;2023-01-29T03:29:05;17.40;;;12.33;;
6723;SDS011;3399;52.530;13.304;2023-01-29T03:31:51;18.87;;;13.47;;
6723;SDS011;3399;52.530;13.304;2023-01-29T03:34:30;20.00;;;13.00;;
6723;SDS011;3399;52.530;13.304;2023-01-29T03:37:10;17.97;;;11.90;;
6723;SDS011;3399;52.530;13.304;2023-01-29T03:39:42;16.77;;;13.27;;
6723;SDS011;3399;52.530;13.304;2023-01-29T03:44:53;13.50;;;10.63;;
6723;SDS011;3399;52.530;13.304;2023-01-29T03:50:35;18.10;;;11.70;;
6723;SDS011;3399;52.530;13.304;2023-01-29T03:53:23;16.80;;;12.80;;
6723;SDS011;3399;52.530;13.304;2023-01-29T03:55:57;15.97;;;10.93;;
6723;SDS011;3399;52.530;13.304;2023-01-29T03:58:33;13.17;;;10.53;;
6723;SDS011;3399;52.530;13.304;2023-01-29T04:01:14;20.17;;;12.63;;
6723;SDS011;3399;52.530;13.304;2023-01-29T04:07:34;15.77;;;12.13;;
6723;SDS011;3399;52.530;13.304;2023-01-29T04:09:54;18.00;;;13.30;;
6723;SDS011;3399;52.530;13.304;2023-01-29T04:12:27;16.97;;;12.23;;
6723;SDS011;3399;52.530;13.304;2023-01-29T04:14:54;15.90;;;11.73;;
6723;SDS011;3399;52.530;13.304;2023-01-29T04:17:26;19.40;;;13.93;;
6723;SDS011;3399;52.530;13.304;2023-01-29T04:19:56;14.20;;;12.03;;
6723;SDS011;3399;52.530;13.304;2023-01-29T04:22:25;19.07;;;14.60;;
6723;SDS011;3399;52.530;13.304;2023-01-29T04:24:55;14.37;;;11.17;;
6723;SDS011;3399;52.530;13.304;2023-01-29T04:30:08;18.30;;;13.47;;
6723;SDS011;3399;52.530;13.304;2023-01-29T04:33:02;20.40;;;14.40;;
6723;SDS011;3399;52.530;13.304;2023-01-29T04:35:55;17.80;;;13.30;;
6723;SDS011;3399;52.530;13.304;2023-01-29T04:38:46;19.77;;;14.20;;
6723;SDS011;3399;52.530;13.304;2023-01-29T04:41:26;24.07;;;15.87;;
6723;SDS011;3399;52.530;13.304;2023-01-29T04:44:18;22.87;;;15.43;;
6723;SDS011;3399;52.530;13.304;2023-01-29T04:49:47;18.00;;;13.80;;
6723;SDS011;3399;52.530;13.304;2023-01-29T04:55:13;23.70;;;16.97;;
6723;SDS011;3399;52.530;13.304;2023-01-29T05:00:37;16.60;;;12.40;;
6723;SDS011;3399;52.530;13.304;2023-01-29T05:03:05;20.17;;;14.40;;
6723;SDS011;3399;52.530;13.304;2023-01-29T05:05:33;19.03;;;14.27;;
6723;SDS011;3399;52.530;13.304;2023-01-29T05:07:59;20.17;;;15.00;;
6723;SDS011;3399;52.530;13.304;2023-01-29T05:10:26;19.73;;;15.00;;
6723;SDS011;3399;52.530;13.304;2023-01-29T05:13:02;18.23;;;12.33;;
6723;SDS011;3399;52.530;13.304;2023-01-29T05:15:35;21.93;;;15.03;;
6723;SDS011;3399;52.530;13.304;2023-01-29T05:18:05;22.63;;;15.70;;
6723;SDS011;3399;52.530;13.304;2023-01-29T05:20:33;21.80;;;15.70;;
6723;SDS011;3399;52.530;13.304;2023-01-29T05:23:01;21.17;;;15.10;;
6723;SDS011;3399;52.530;13.304;2023-01-29T05:25:28;20.13;;;14.83;;
6723;SDS011;3399;52.530;13.304;2023-01-29T05:27:55;22.30;;;16.03;;
6723;SDS011;3399;52.530;13.304;2023-01-29T05:30:31;22.17;;;14.77;;
6723;SDS011;3399;52.530;13.304;2023-01-29T05:32:58;19.03;;;15.67;;
6723;SDS011;3399;52.530;13.304;2023-01-29T05:35:23;27.93;;;16.93;;
6723;SDS011;3399;52.530;13.304;2023-01-29T05:37:49;23.70;;;16.73;;
6723;SDS011;3399;52.530;13.304;2023-01-29T05:40:15;42.80;;;28.77;;
6723;SDS011;3399;52.530;13.304;2023-01-29T05:42:40;36.53;;;22.83;;
6723;SDS011;3399;52.530;13.304;2023-01-29T05:45:06;34.43;;;24.57;;
6723;SDS011;3399;52.530;13.304;2023-01-29T05:47:32;22.57;;;16.27;;
6723;SDS011;3399;52.530;13.304;2023-01-29T05:49:57;23.70;;;16.47;;
6723;SDS011;3399;52.530;13.304;2023-01-29T05:52:23;23.07;;;16.20;;
6723;SDS011;3399;52.530;13.304;2023-01-29T05:54:48;22.17;;;16.80;;
6723;SDS011;3399;52.530;13.304;2023-01-29T05:57:14;22.07;;;17.03;;
6723;SDS011;3399;52.530;13.304;2023-01-29T05:59:39;29.40;;;20.47;;
6723;SDS011;3399;52.530;13.304;2023-01-29T06:02:05;26.27;;;16.30;;
6723;SDS011;3399;52.530;13.304;2023-01-29T06:04:30;22.27;;;15.13;;
6723;SDS011;3399;52.530;13.304;2023-01-29T06:06:56;19.90;;;15.10;;
6723;SDS011;3399;52.530;13.304;2023-01-29T06:09:21;21.83;;;14.53;;
6723;SDS011;3399;52.530;13.304;2023-01-29T06:11:47;24.43;;;16.37;;
6723;SDS011;3399;52.530;13.304;2023-01-29T06:14:12;25.43;;;16.73;;
6723;SDS011;3399;52.530;13.304;2023-01-29T06:16:38;20.57;;;15.40;;
6723;SDS011;3399;52.530;13.304;2023-01-29T06:19:03;22.17;;;15.87;;
6723;SDS011;3399;52.530;13.304;2023-01-29T06:21:29;21.67;;;16.10;;
6723;SDS011;3399;52.530;13.304;2023-01-29T06:23:54;24.10;;;16.73;;
6723;SDS011;3399;52.530;13.304;2023-01-29T06:26:20;23.13;;;16.37;;
6723;SDS011;3399;52.530;13.304;2023-01-29T06:28:48;23.40;;;16.27;;
6723;SDS011;3399;52.530;13.304;2023-01-29T06:31:14;23.07;;;16.63;;
6723;SDS011;3399;52.530;13.304;2023-01-29T06:33:40;24.97;;;15.57;;
6723;SDS011;3399;52.530;13.304;2023-01-29T06:36:05;21.60;;;16.23;;
6723;SDS011;3399;52.530;13.304;2023-01-29T06:38:31;25.37;;;16.73;;
6723;SDS011;3399;52.530;13.304;2023-01-29T06:40:58;22.97;;;16.53;;
6723;SDS011;3399;52.530;13.304;2023-01-29T06:43:23;26.60;;;15.60;;
6723;SDS011;3399;52.530;13.304;2023-01-29T06:45:49;23.10;;;17.50;;
6723;SDS011;3399;52.530;13.304;2023-01-29T06:48:17;23.00;;;17.07;;
6723;SDS011;3399;52.530;13.304;2023-01-29T06:50:42;25.00;;;18.37;;
6723;SDS011;3399;52.530;13.304;2023-01-29T06:53:08;21.23;;;16.23;;
6723;SDS011;3399;52.530;13.304;2023-01-29T06:55:33;29.50;;;20.57;;
6723;SDS011;3399;52.530;13.304;2023-01-29T06:57:59;23.23;;;16.07;;
6723;SDS011;3399;52.530;13.304;2023-01-29T07:00:28;23.07;;;17.10;;
6723;SDS011;3399;52.530;13.304;2023-01-29T07:02:53;25.67;;;17.47;;
6723;SDS011;3399;52.530;13.304;2023-01-29T07:05:19;22.17;;;17.07;;
6723;SDS011;3399;52.530;13.304;2023-01-29T07:07:44;30.50;;;19.33;;
6723;SDS011;3399;52.530;13.304;2023-01-29T07:10:10;21.80;;;16.87;;
6723;SDS011;3399;52.530;13.304;2023-01-29T07:12:35;27.20;;;17.37;;
6723;SDS011;3399;52.530;13.304;2023-01-29T07:15:01;26.43;;;17.57;;
6723;SDS011;3399;52.530;13.304;2023-01-29T07:17:26;27.23;;;16.57;;
6723;SDS011;3399;52.530;13.304;2023-01-29T07:19:52;22.60;;;16.37;;
6723;SDS011;3399;52.530;13.304;2023-01-29T07:22:17;25.37;;;17.77;;
6723;SDS011;3399;52.530;13.304;2023-01-29T07:24:43;21.40;;;16.50;;
6723;SDS011;3399;52.530;13.304;2023-01-29T07:27:08;22.10;;;16.10;;
6723;SDS011;3399;52.530;13.304;2023-01-29T07:29:34;28.20;;;18.77;;
6723;SDS011;3399;52.530;13.304;2023-01-29T07:31:59;27.97;;;19.77;;
6723;SDS011;3399;52.530;13.304;2023-01-29T07:34:25;29.07;;;18.17;;
6723;SDS011;3399;52.530;13.304;2023-01-29T07:36:53;28.07;;;17.73;;
6723;SDS011;3399;52.530;13.304;2023-01-29T07:39:20;26.10;;;17.17;;
6723;SDS011;3399;52.530;13.304;2023-01-29T07:41:46;26.43;;;17.83;;
6723;SDS011;3399;52.530;13.304;2023-01-29T07:44:12;28.17;;;21.07;;
6723;SDS011;3399;52.530;13.304;2023-01-29T07:46:37;30.80;;;18.03;;
6723;SDS011;3399;52.530;13.304;2023-01-29T07:49:02;25.97;;;18.47;;
6723;SDS011;3399;52.530;13.304;2023-01-29T07:51:28;25.43;;;18.20;;
6723;SDS011;3399;52.530;13.304;2023-01-29T07:53:53;21.63;;;17.17;;
6723;SDS011;3399;52.530;13.304;2023-01-29T07:56:19;26.77;;;17.13;;
6723;SDS011;3399;52.530;13.304;2023-01-29T07:58:44;27.87;;;18.43;;
6723;SDS011;3399;52.530;13.304;2023-01-29T08:01:10;30.17;;;18.67;;
6723;SDS011;3399;52.530;13.304;2023-01-29T08:03:35;27.57;;;17.83;;
6723;SDS011;3399;52.530;13.304;2023-01-29T08:06:02;23.03;;;15.27;;
6723;SDS011;3399;52.530;13.304;2023-01-29T08:08:28;26.83;;;18.40;;
6723;SDS011;3399;52.530;13.304;2023-01-29T08:10:54;26.03;;;17.40;;
6723;SDS011;3399;52.530;13.304;2023-01-29T08:13:20;25.53;;;17.80;;
6723;SDS011;3399;52.530;13.304;2023-01-29T08:15:45;24.77;;;17.40;;
6723;SDS011;3399;52.530;13.304;2023-01-29T08:18:11;25.77;;;19.03;;
6723;SDS011;3399;52.530;13.304;2023-01-29T08:20:37;24.80;;;18.57;;
6723;SDS011;3399;52.530;13.304;2023-01-29T08:23:04;28.37;;;18.53;;
6723;SDS011;3399;52.530;13.304;2023-01-29T08:25:31;23.60;;;16.37;;
6723;SDS011;3399;52.530;13.304;2023-01-29T08:27:58;24.57;;;17.60;;
6723;SDS011;3399;52.530;13.304;2023-01-29T08:30:25;26.10;;;19.60;;
6723;SDS011;3399;52.530;13.304;2023-01-29T08:32:55;26.83;;;18.87;;
6723;SDS011;3399;52.530;13.304;2023-01-29T08:35:20;29.70;;;20.73;;
6723;SDS011;3399;52.530;13.304;2023-01-29T08:37:55;36.53;;;18.90;;
6723;SDS011;3399;52.530;13.304;2023-01-29T08:40:25;27.37;;;17.17;;
6723;SDS011;3399;52.530;13.304;2023-01-29T08:42:56;30.33;;;18.23;;
6723;SDS011;3399;52.530;13.304;2023-01-29T08:45:25;25.97;;;17.83;;
6723;SDS011;3399;52.530;13.304;2023-01-29T08:47:51;28.03;;;17.83;;
6723;SDS011;3399;52.530;13.304;2023-01-29T08:50:16;26.93;;;18.73;;
6723;SDS011;3399;52.530;13.304;2023-01-29T08:52:42;28.73;;;18.80;;
6723;SDS011;3399;52.530;13.304;2023-01-29T08:55:08;26.07;;;18.90;;
6723;SDS011;3399;52.530;13.304;2023-01-29T08:57:34;29.10;;;19.50;;
6723;SDS011;3399;52.530;13.304;2023-01-29T09:00:01;26.63;;;17.30;;
6723;SDS011;3399;52.530;13.304;2023-01-29T09:02:27;25.43;;;18.83;;
6723;SDS011;3399;52.530;13.304;2023-01-29T09:04:53;25.60;;;18.30;;
6723;SDS011;3399;52.530;13.304;2023-01-29T09:07:18;21.47;;;15.97;;
6723;SDS011;3399;52.530;13.304;2023-01-29T09:09:45;22.43;;;17.43;;
6723;SDS011;3399;52.530;13.304;2023-01-29T09:12:11;24.57;;;16.47;;
6723;SDS011;3399;52.530;13.304;2023-01-29T09:14:36;27.10;;;18.03;;
6723;SDS011;3399;52.530;13.304;2023-01-29T09:17:02;25.00;;;16.80;;
6723;SDS011;3399;52.530;13.304;2023-01-29T09:19:27;23.50;;;18.00;;
6723;SDS011;3399;52.530;13.304;2023-01-29T09:21:53;27.87;;;17.17;;
6723;SDS011;3399;52.530;13.304;2023-01-29T09:24:18;21.47;;;15.23;;
6723;SDS011;3399;52.530;13.304;2023-01-29T09:26:44;22.03;;;16.27;;
6723;SDS011;3399;52.530;13.304;2023-01-29T09:29:09;23.93;;;16.63;;
6723;SDS011;3399;52.530;13.304;2023-01-29T09:31:35;23.53;;;16.93;;
6723;SDS011;3399;52.530;13.304;2023-01-29T09:34:00;24.03;;;17.07;;
6723;SDS011;3399;52.530;13.304;2023-01-29T09:36:26;18.87;;;12.30;;
6723;SDS011;3399;52.530;13.304;2023-01-29T09:38:51;23.33;;;16.83;;
6723;SDS011;3399;52.530;13.304;2023-01-29T09:43:55;22.73;;;16.40;;
6723;SDS011;3399;52.530;13.304;2023-01-29T09:46:37;24.33;;;17.60;;
6723;SDS011;3399;52.530;13.304;2023-01-29T09:49:18;24.53;;;17.00;;
6723;SDS011;3399;52.530;13.304;2023-01-29T09:52:19;24.23;;;16.57;;
6723;SDS011;3399;52.530;13.304;2023-01-29T09:57:18;24.03;;;14.90;;
6723;SDS011;3399;52.530;13.304;2023-01-29T09:59:51;21.77;;;14.33;;
6723;SDS011;3399;52.530;13.304;2023-01-29T10:02:31;20.83;;;15.10;;
6723;SDS011;3399;52.530;13.304;2023-01-29T10:10:45;18.63;;;15.00;;
6723;SDS011;3399;52.530;13.304;2023-01-29T10:16:16;20.03;;;13.77;;
6723;SDS011;3399;52.530;13.304;2023-01-29T10:19:02;18.57;;;14.37;;
6723;SDS011;3399;52.530;13.304;2023-01-29T10:22:01;20.27;;;13.50;;
6723;SDS011;3399;52.530;13.304;2023-01-29T10:24:57;16.03;;;11.53;;
6723;SDS011;3399;52.530;13.304;2023-01-29T10:27:29;16.23;;;12.23;;
6723;SDS011;3399;52.530;13.304;2023-01-29T10:29:57;15.57;;;12.10;;
6723;SDS011;3399;52.530;13.304;2023-01-29T10:32:26;18.50;;;13.43;;
6723;SDS011;3399;52.530;13.304;2023-01-29T10:34:55;18.83;;;14.10;;
6723;SDS011;3399;52.530;13.304;2023-01-29T10:37:37;18.57;;;12.77;;
6723;SDS011;3399;52.530;13.304;2023-01-29T10:43:02;19.27;;;12.70;;
6723;SDS011;3399;52.530;13.304;2023-01-29T10:45:45;17.70;;;12.97;;
6723;SDS011;3399;52.530;13.304;2023-01-29T10:57:12;13.87;;;11.77;;
6723;SDS011;3399;52.530;13.304;2023-01-29T11:00:21;15.10;;;11.50;;
6723;SDS011;3399;52.530;13.304;2023-01-29T11:02:49;17.57;;;11.97;;
6723;SDS011;3399;52.530;13.304;2023-01-29T11:05:19;15.97;;;12.90;;
6723;SDS011;3399;52.530;13.304;2023-01-29T11:08:03;13.47;;;10.90;;
6723;SDS011;3399;52.530;13.304;2023-01-29T11:10:34;13.50;;;9.10;;
6723;SDS011;3399;52.530;13.304;2023-01-29T11:13:05;15.23;;;11.30;;
6723;SDS011;3399;52.530;13.304;2023-01-29T11:15:33;17.20;;;12.60;;
6723;SDS011;3399;52.530;13.304;2023-01-29T11:18:03;15.13;;;11.13;;
6723;SDS011;3399;52.530;13.304;2023-01-29T11:20:37;14.17;;;11.00;;
6723;SDS011;3399;52.530;13.304;2023-01-29T11:23:02;13.77;;;11.10;;
6723;SDS011;3399;52.530;13.304;2023-01-29T11:25:28;15.80;;;11.43;;
6723;SDS011;3399;52.530;13.304;2023-01-29T11:27:57;16.10;;;12.13;;
6723;SDS011;3399;52.530;13.304;2023-01-29T11:30:30;16.27;;;11.00;;
6723;SDS011;3399;52.530;13.304;2023-01-29T11:33:11;15.60;;;11.73;;
6723;SDS011;3399;52.530;13.304;2023-01-29T11:35:43;12.80;;;10.87;;
6723;SDS011;3399;52.530;13.304;2023-01-29T11:40:40;16.80;;;12.70;;
6723;SDS011;3399;52.530;13.304;2023-01-29T11:43:20;18.60;;;14.63;;
6723;SDS011;3399;52.530;13.304;2023-01-29T11:46:05;23.30;;;19.47;;
6723;SDS011;3399;52.530;13.304;2023-01-29T11:51:07;13.77;;;12.03;;
6723;SDS011;3399;52.530;13.304;2023-01-29T11:53:37;14.37;;;11.23;;
6723;SDS011;3399;52.530;13.304;2023-01-29T11:56:28;13.87;;;11.73;;
6723;SDS011;3399;52.530;13.304;2023-01-29T11:59:04;15.50;;;9.97;;
6723;SDS011;3399;52.530;13.304;2023-01-29T12:01:33;14.57;;;12.07;;
6723;SDS011;3399;52.530;13.304;2023-01-29T12:04:01;14.60;;;11.63;;
6723;SDS011;3399;52.530;13.304;2023-01-29T12:06:40;14.83;;;11.60;;
6723;SDS011;3399;52.530;13.304;2023-01-29T12:09:08;15.37;;;11.30;;
6723;SDS011;3399;52.530;13.304;2023-01-29T12:11:38;16.00;;;11.83;;
6723;SDS011;3399;52.530;13.304;2023-01-29T12:14:04;15.30;;;9.47;;
6723;SDS011;3399;52.530;13.304;2023-01-29T12:19:57;14.70;;;12.70;;
6723;SDS011;3399;52.530;13.304;2023-01-29T12:22:33;14.07;;;10.47;;
6723;SDS011;3399;52.530;13.304;2023-01-29T12:27:47;14.30;;;10.67;;
6723;SDS011;3399;52.530;13.304;2023-01-29T12:30:24;12.17;;;10.50;;
6723;SDS011;3399;52.530;13.304;2023-01-29T12:36:09;16.97;;;12.43;;
6723;SDS011;3399;52.530;13.304;2023-01-29T12:38:52;14.90;;;10.80;;
6723;SDS011;3399;52.530;13.304;2023-01-29T12:43:52;15.60;;;10.63;;
6723;SDS011;3399;52.530;13.304;2023-01-29T12:46:25;15.93;;;11.43;;
6723;SDS011;3399;52.530;13.304;2023-01-29T12:48:54;19.90;;;12.00;;
6723;SDS011;3399;52.530;13.304;2023-01-29T12:51:27;14.83;;;11.77;;
6723;SDS011;3399;52.530;13.304;2023-01-29T12:54:08;20.00;;;11.67;;
6723;SDS011;3399;52.530;13.304;2023-01-29T12:56:39;13.03;;;9.93;;
6723;SDS011;3399;52.530;13.304;2023-01-29T12:59:35;13.97;;;11.80;;
6723;SDS011;3399;52.530;13.304;2023-01-29T13:02:05;14.50;;;11.33;;
6723;SDS011;3399;52.530;13.304;2023-01-29T13:04:47;21.27;;;12.37;;
6723;SDS011;3399;52.530;13.304;2023-01-29T13:07:40;11.33;;;8.50;;
6723;SDS011;3399;52.530;13.304;2023-01-29T13:10:12;15.70;;;12.03;;
6723;SDS011;3399;52.530;13.304;2023-01-29T13:12:47;13.10;;;10.20;;
6723;SDS011;3399;52.530;13.304;2023-01-29T13:15:27;15.80;;;11.20;;
6723;SDS011;3399;52.530;13.304;2023-01-29T13:18:01;15.57;;;10.87;;
6723;SDS011;3399;52.530;13.304;2023-01-29T13:20:31;15.73;;;11.23;;
6723;SDS011;3399;52.530;13.304;2023-01-29T13:23:05;16.73;;;12.83;;
6723;SDS011;3399;52.530;13.304;2023-01-29T13:25:44;19.63;;;13.70;;
6723;SDS011;3399;52.530;13.304;2023-01-29T13:28:15;13.87;;;10.63;;
6723;SDS011;3399;52.530;13.304;2023-01-29T13:31:10;14.80;;;9.63;;
6723;SDS011;3399;52.530;13.304;2023-01-29T13:33:51;18.73;;;11.87;;
6723;SDS011;3399;52.530;13.304;2023-01-29T13:36:21;18.37;;;11.70;;
6723;SDS011;3399;52.530;13.304;2023-01-29T13:38:59;16.23;;;11.33;;
6723;SDS011;3399;52.530;13.304;2023-01-29T13:41:32;20.00;;;12.60;;
6723;SDS011;3399;52.530;13.304;2023-01-29T13:44:04;15.03;;;12.27;;
6723;SDS011;3399;52.530;13.304;2023-01-29T13:46:31;11.40;;;8.10;;
6723;SDS011;3399;52.530;13.304;2023-01-29T13:48:57;15.97;;;11.60;;
6723;SDS011;3399;52.530;13.304;2023-01-29T13:51:30;18.47;;;12.07;;
6723;SDS011;3399;52.530;13.304;2023-01-29T13:54:04;16.80;;;12.13;;
6723;SDS011;3399;52.530;13.304;2023-01-29T13:56:45;15.63;;;12.17;;
6723;SDS011;3399;52.530;13.304;2023-01-29T13:59:23;17.73;;;12.57;;
6723;SDS011;3399;52.530;13.304;2023-01-29T14:02:18;19.03;;;13.07;;
6723;SDS011;3399;52.530;13.304;2023-01-29T14:04:44;15.07;;;11.17;;
6723;SDS011;3399;52.530;13.304;2023-01-29T14:12:46;12.83;;;11.07;;
6723;SDS011;3399;52.530;13.304;2023-01-29T14:15:17;26.13;;;16.33;;
6723;SDS011;3399;52.530;13.304;2023-01-29T14:17:54;18.17;;;13.73;;
6723;SDS011;3399;52.530;13.304;2023-01-29T14:20:25;21.67;;;16.10;;
6723;SDS011;3399;52.530;13.304;2023-01-29T14:22:58;22.43;;;15.30;;
6723;SDS011;3399;52.530;13.304;2023-01-29T14:25:29;19.93;;;14.03;;
6723;SDS011;3399;52.530;13.304;2023-01-29T14:27:58;22.37;;;14.67;;
6723;SDS011;3399;52.530;13.304;2023-01-29T14:30:27;21.87;;;16.33;;
6723;SDS011;3399;52.530;13.304;2023-01-29T14:32:55;24.17;;;16.03;;
6723;SDS011;3399;52.530;13.304;2023-01-29T14:35:25;18.30;;;13.63;;
6723;SDS011;3399;52.530;13.304;2023-01-29T14:37:55;20.90;;;16.63;;
6723;SDS011;3399;52.530;13.304;2023-01-29T14:40:24;21.57;;;15.57;;
6723;SDS011;3399;52.530;13.304;2023-01-29T14:45:32;23.00;;;15.90;;
6723;SDS011;3399;52.530;13.304;2023-01-29T14:53:08;27.77;;;18.70;;
6723;SDS011;3399;52.530;13.304;2023-01-29T14:58:35;26.60;;;18.37;;
6723;SDS011;3399;52.530;13.304;2023-01-29T15:01:14;23.13;;;16.60;;
6723;SDS011;3399;52.530;13.304;2023-01-29T15:03:58;28.40;;;18.17;;
6723;SDS011;3399;52.530;13.304;2023-01-29T15:06:31;25.90;;;17.53;;
6723;SDS011;3399;52.530;13.304;2023-01-29T15:09:14;23.60;;;16.67;;
6723;SDS011;3399;52.530;13.304;2023-01-29T15:12:14;22.97;;;15.67;;
6723;SDS011;3399;52.530;13.304;2023-01-29T15:14:59;22.87;;;16.13;;
6723;SDS011;3399;52.530;13.304;2023-01-29T15:17:48;24.97;;;17.93;;
6723;SDS011;3399;52.530;13.304;2023-01-29T15:20:32;21.13;;;15.87;;
6723;SDS011;3399;52.530;13.304;2023-01-29T15:22:59;22.47;;;15.50;;
6723;SDS011;3399;52.530;13.304;2023-01-29T15:25:28;23.33;;;16.27;;
6723;SDS011;3399;52.530;13.304;2023-01-29T15:27:59;23.80;;;15.30;;
6723;SDS011;3399;52.530;13.304;2023-01-29T15:30:28;22.20;;;14.87;;
6723;SDS011;3399;52.530;13.304;2023-01-29T15:32:57;17.93;;;13.80;;
6723;SDS011;3399;52.530;13.304;2023-01-29T15:35:33;19.40;;;14.30;;
6723;SDS011;3399;52.530;13.304;2023-01-29T15:38:02;23.40;;;16.13;;
6723;SDS011;3399;52.530;13.304;2023-01-29T15:40:38;19.53;;;14.27;;
6723;SDS011;3399;52.530;13.304;2023-01-29T15:43:17;21.87;;;15.07;;
6723;SDS011;3399;52.530;13.304;2023-01-29T15:45:52;23.93;;;15.27;;
6723;SDS011;3399;52.530;13.304;2023-01-29T15:48:23;23.00;;;15.57;;
6723;SDS011;3399;52.530;13.304;2023-01-29T15:51:05;21.17;;;15.43;;
6723;SDS011;3399;52.530;13.304;2023-01-29T15:53:52;21.97;;;15.73;;
6723;SDS011;3399;52.530;13.304;2023-01-29T15:56:25;21.10;;;16.03;;
6723;SDS011;3399;52.530;13.304;2023-01-29T15:58:55;20.77;;;14.57;;
6723;SDS011;3399;52.530;13.304;2023-01-29T16:01:26;21.50;;;14.47;;
6723;SDS011;3399;52.530;13.304;2023-01-29T16:03:52;16.87;;;11.80;;
6723;SDS011;3399;52.530;13.304;2023-01-29T16:06:19;17.17;;;14.13;;
6723;SDS011;3399;52.530;13.304;2023-01-29T16:08:47;18.73;;;12.17;;
6723;SDS011;3399;52.530;13.304;2023-01-29T16:11:17;24.20;;;15.73;;
6723;SDS011;3399;52.530;13.304;2023-01-29T16:13:44;21.40;;;13.90;;
6723;SDS011;3399;52.530;13.304;2023-01-29T16:18:38;20.10;;;13.67;;
6723;SDS011;3399;52.530;13.304;2023-01-29T16:21:07;21.17;;;14.70;;
6723;SDS011;3399;52.530;13.304;2023-01-29T16:23:54;18.80;;;13.63;;
6723;SDS011;3399;52.530;13.304;2023-01-29T16:26:23;17.77;;;12.03;;
6723;SDS011;3399;52.530;13.304;2023-01-29T16:28:51;20.07;;;11.73;;
6723;SDS011;3399;52.530;13.304;2023-01-29T16:31:24;19.53;;;15.23;;
6723;SDS011;3399;52.530;13.304;2023-01-29T16:33:52;17.83;;;13.10;;
6723;SDS011;3399;52.530;13.304;2023-01-29T16:36:21;19.70;;;13.97;;